Time;durP1;ratioP1;P1;durP2;ratioP2;P2;SDS_P1;SDS_P2;PMS_P1;PMS_P2;Temp;Humidity;BMP_temperature;BMP_pressure;BME280_temperature;BME280_humidity;BME280_pressure;Samples;Min_cycle;Max_cycle;Signal;HPM_P1;HPM_P2
2022/02/14 00:01:07;;;;;;;14.70;6.00;;;;;;;0.75;55.61;100783.43;25180;1313;3026430;-68
2022/02/14 00:03:36;;;;;;;17.20;5.50;;;;;;;0.69;56.01;100783.44;25086;1313;3048503;-71
2022/02/14 00:06:05;;;;;;;11.80;5.30;;;;;;;0.68;55.71;100784.81;25226;1313;3026837;-67
2022/02/14 00:08:35;;;;;;;12.20;4.00;;;;;;;0.69;55.32;100783.96;25221;1313;3026789;-70
2022/02/14 00:11:04;;;;;;;13.00;5.10;;;;;;;0.70;55.43;100779.65;25223;1313;3029001;-68
2022/02/14 00:13:33;;;;;;;20.90;7.00;;;;;;;0.75;55.45;100779.99;25238;1313;3052734;-68
2022/02/14 00:16:02;;;;;;;19.60;6.50;;;;;;;0.72;55.71;100778.27;25236;1316;3026287;-69
2022/02/14 00:18:32;;;;;;;23.10;8.40;;;;;;;0.68;55.72;100775.67;25164;1313;3027557;-71
2022/02/14 00:21:04;;;;;;;18.60;7.30;;;;;;;0.63;56.12;100774.98;25203;1313;3027295;-63
2022/02/14 00:23:35;;;;;;;15.30;7.10;;;;;;;0.61;56.40;100771.54;25179;1313;3026456;-69
2022/02/14 00:26:04;;;;;;;21.00;8.30;;;;;;;0.58;56.29;100769.97;25138;1313;3026252;-68
2022/02/14 00:28:33;;;;;;;35.30;12.50;;;;;;;0.56;56.63;100769.80;25114;1313;3051370;-67
2022/02/14 00:31:02;;;;;;;29.00;12.20;;;;;;;0.51;56.77;100763.06;25101;1313;3026439;-67
2022/02/14 00:33:31;;;;;;;13.10;6.80;;;;;;;0.57;56.32;100761.86;25131;1313;3055539;-69
2022/02/14 00:36:00;;;;;;;12.10;5.70;;;;;;;0.52;55.92;100763.77;25142;1313;3027268;-64
2022/02/14 00:38:29;;;;;;;13.30;5.50;;;;;;;0.49;56.15;100759.44;25185;1314;3049754;-71
2022/02/14 00:40:58;;;;;;;11.50;4.80;;;;;;;0.47;56.29;100755.82;25082;1313;3026680;-68
2022/02/14 00:43:27;;;;;;;13.10;5.00;;;;;;;0.52;56.25;100753.58;25173;1313;3026142;-67
2022/02/14 00:45:57;;;;;;;8.20;3.80;;;;;;;0.65;55.94;100754.46;25143;1317;3055413;-69
2022/02/14 00:48:26;;;;;;;14.20;4.50;;;;;;;0.65;55.70;100747.56;25120;1313;3026878;-69
2022/02/14 00:50:55;;;;;;;15.20;5.40;;;;;;;0.57;55.35;100753.06;25200;1313;3051903;-66
2022/02/14 00:53:24;;;;;;;11.90;4.20;;;;;;;0.55;55.51;100749.80;25114;1313;3028312;-67
2022/02/14 00:55:53;;;;;;;12.30;5.50;;;;;;;0.57;55.45;100749.79;25196;1313;3048645;-71
2022/02/14 00:58:22;;;;;;;13.50;4.70;;;;;;;0.57;55.56;100746.69;25100;1313;3026627;-68
2022/02/14 01:00:51;;;;;;;11.70;3.70;;;;;;;0.61;55.45;100746.70;25105;1313;3069380;-67
2022/02/14 01:03:20;;;;;;;11.30;4.80;;;;;;;0.56;55.11;100747.39;25122;1313;3026437;-70
2022/02/14 01:05:50;;;;;;;10.40;4.30;;;;;;;0.52;55.46;100744.78;25164;1313;3050816;-66
2022/02/14 01:08:19;;;;;;;7.80;3.20;;;;;;;0.52;55.24;100745.31;25131;1315;3026328;-69
2022/02/14 01:10:48;;;;;;;13.00;4.30;;;;;;;0.52;55.56;100744.45;25125;1313;3052648;-70
2022/02/14 01:13:17;;;;;;;15.70;3.70;;;;;;;0.50;55.31;100737.55;25215;1315;3026244;-67
2022/02/14 01:15:46;;;;;;;8.30;3.00;;;;;;;0.56;55.38;100738.06;25145;1313;3053190;-68
2022/02/14 01:18:15;;;;;;;7.60;3.00;;;;;;;0.58;54.88;100737.04;25137;1316;3026523;-66
2022/02/14 01:20:45;;;;;;;9.50;2.70;;;;;;;0.65;54.86;100732.90;25180;1316;3029481;-64
2022/02/14 01:23:14;;;;;;;8.20;3.10;;;;;;;0.72;54.89;100732.91;25077;1313;3050959;-70
2022/02/14 01:25:43;;;;;;;10.80;3.40;;;;;;;0.70;55.13;100727.55;25132;1313;3026999;-65
2022/02/14 01:28:12;;;;;;;15.00;3.80;;;;;;;0.71;54.94;100727.22;25135;1313;3058246;-71
2022/02/14 01:30:41;;;;;;;8.40;3.80;;;;;;;0.71;54.96;100729.63;25112;1313;3026739;-67
2022/02/14 01:33:09;;;;;;;8.90;3.30;;;;;;;0.71;54.57;100729.64;25063;1313;3052179;-66
2022/02/14 01:35:38;;;;;;;10.60;3.60;;;;;;;0.72;54.72;100726.00;25136;1314;3026882;-64
2022/02/14 01:38:07;;;;;;;10.00;4.00;;;;;;;0.70;54.71;100727.91;25243;1312;3052197;-65
2022/02/14 01:40:36;;;;;;;8.90;2.60;;;;;;;0.69;54.96;100721.85;25116;1313;3026301;-69
2022/02/14 01:43:05;;;;;;;11.30;3.90;;;;;;;0.72;54.87;100717.55;25199;1313;3050020;-69
2022/02/14 01:45:34;;;;;;;11.50;3.50;;;;;;;0.69;54.78;100720.31;25147;1313;3027883;-64
2022/02/14 01:48:06;;;;;;;9.20;3.50;;;;;;;0.65;54.76;100717.04;25164;1315;3070245;-64
2022/02/14 01:50:35;;;;;;;8.00;3.30;;;;;;;0.67;54.93;100716.52;25165;1315;3026924;-69
2022/02/14 01:53:05;;;;;;;16.40;4.50;;;;;;;0.65;54.84;100710.14;25096;1313;3026739;-72
2022/02/14 01:55:34;;;;;;;16.40;5.00;;;;;;;0.64;55.23;100712.73;25133;1313;3028497;-66
2022/02/14 01:58:03;;;;;;;17.90;5.20;;;;;;;0.66;54.96;100715.65;25123;1313;3048622;-69
2022/02/14 02:00:34;;;;;;;16.80;5.30;;;;;;;0.67;55.24;100711.00;25075;1312;3027106;-68
2022/02/14 02:03:04;;;;;;;17.80;5.00;;;;;;;0.69;55.34;100709.11;25090;1313;3026359;-66
2022/02/14 02:05:33;;;;;;;18.40;5.00;;;;;;;0.69;55.29;100706.52;25116;1314;3026534;-66
2022/02/14 02:08:03;;;;;;;17.40;4.80;;;;;;;0.67;55.06;100705.31;25184;1316;3027704;-69
2022/02/14 02:10:32;;;;;;;20.90;6.70;;;;;;;0.63;55.75;100699.80;25104;1313;3030067;-69
2022/02/14 02:13:01;;;;;;;16.20;5.50;;;;;;;0.62;55.38;100700.65;25162;1316;3054544;-65
2022/02/14 02:15:31;;;;;;;15.40;4.60;;;;;;;0.62;55.59;100698.23;25118;1316;3026781;-70
2022/02/14 02:18:00;;;;;;;14.60;4.60;;;;;;;0.63;55.58;100692.38;25153;1313;3052100;-69
2022/02/14 02:20:29;;;;;;;11.00;4.50;;;;;;;0.72;55.26;100694.44;25171;1313;3026934;-66
2022/02/14 02:22:58;;;;;;;16.20;6.40;;;;;;;0.75;55.13;100688.58;25134;1313;3050745;-68
2022/02/14 02:25:27;;;;;;;22.70;8.90;;;;;;;0.75;55.32;100687.71;25185;1315;3027567;-66
2022/02/14 02:27:56;;;;;;;40.80;11.20;;;;;;;0.74;55.18;100688.58;25129;1313;3047866;-66
2022/02/14 02:30:25;;;;;;;20.00;8.00;;;;;;;0.75;55.75;100685.64;25175;1313;3026782;-68
2022/02/14 02:32:54;;;;;;;25.20;8.80;;;;;;;0.78;55.60;100689.09;25098;1313;3070959;-65
2022/02/14 02:35:23;;;;;;;24.70;8.80;;;;;;;0.79;55.59;100688.92;25109;1313;3026464;-71
2022/02/14 02:37:52;;;;;;;28.00;9.10;;;;;;;0.79;55.97;100689.61;25188;1313;3054070;-68
2022/02/14 02:40:21;;;;;;;27.70;9.40;;;;;;;0.78;55.61;100690.30;25153;1313;3027092;-64
2022/02/14 02:42:50;;;;;;;24.90;8.40;;;;;;;0.77;55.97;100690.98;25074;1313;3055192;-71
2022/02/14 02:45:19;;;;;;;25.40;9.20;;;;;;;0.77;55.91;100686.34;25162;1313;3027192;-65
2022/02/14 02:47:48;;;;;;;18.40;6.70;;;;;;;0.78;55.71;100685.11;25173;1313;3026053;-65
2022/02/14 02:50:18;;;;;;;17.30;6.90;;;;;;;0.81;55.81;100692.20;25162;1313;3054617;-66
2022/02/14 02:52:47;;;;;;;20.40;8.10;;;;;;;0.80;55.81;100690.98;25160;1313;3027137;-65
2022/02/14 02:55:16;;;;;;;22.50;7.70;;;;;;;0.80;55.87;100696.16;25147;1312;3026373;-68
2022/02/14 02:57:45;;;;;;;24.50;8.50;;;;;;;0.80;56.10;100690.65;25168;1313;3054746;-68
2022/02/14 03:00:15;;;;;;;19.90;8.10;;;;;;;0.81;56.12;100685.46;25140;1313;3026533;-64
2022/02/14 03:02:44;;;;;;;18.10;8.20;;;;;;;0.80;56.08;100693.23;25054;1313;3050287;-64
2022/02/14 03:05:13;;;;;;;17.70;7.20;;;;;;;0.80;55.92;100694.79;25207;1313;3026275;-68
2022/02/14 03:07:42;;;;;;;14.60;6.30;;;;;;;0.82;55.91;100694.79;25093;1313;3059910;-64
2022/02/14 03:10:12;;;;;;;12.10;5.90;;;;;;;0.80;55.87;100695.48;25052;1316;3027621;-66
2022/02/14 03:12:41;;;;;;;11.10;4.70;;;;;;;0.80;55.81;100698.23;25178;1313;3026359;-66
2022/02/14 03:15:10;;;;;;;12.90;4.80;;;;;;;0.72;56.21;100694.78;25112;1313;3055354;-64
2022/02/14 03:17:39;;;;;;;10.20;4.70;;;;;;;0.64;56.62;100698.41;25150;1312;3027501;-69
2022/02/14 03:20:09;;;;;;;14.70;6.50;;;;;;;0.58;57.11;100694.79;25094;1313;3051341;-65
2022/02/14 03:22:38;;;;;;;10.10;5.10;;;;;;;0.56;57.00;100697.38;25177;1313;3027057;-69
2022/02/14 03:25:08;;;;;;;15.70;5.70;;;;;;;0.56;57.02;100691.52;25113;1313;3026689;-66
2022/02/14 03:27:37;;;;;;;14.20;6.40;;;;;;;0.50;57.33;100694.11;25081;1313;3054201;-67
2022/02/14 03:30:06;;;;;;;17.50;8.20;;;;;;;0.46;57.59;100693.06;25119;1313;3027714;-68
2022/02/14 03:32:37;;;;;;;16.50;7.20;;;;;;;0.43;58.05;100692.55;25129;1313;3052153;-69
2022/02/14 03:35:06;;;;;;;17.80;8.00;;;;;;;0.43;57.88;100689.96;25092;1313;3026940;-69
2022/02/14 03:37:36;;;;;;;19.40;8.10;;;;;;;0.40;58.11;100684.79;25105;1313;3049555;-65
2022/02/14 03:40:06;;;;;;;21.10;8.40;;;;;;;0.36;58.34;100684.44;25198;1313;3026648;-65
2022/02/14 03:42:35;;;;;;;24.60;7.60;;;;;;;0.36;58.38;100677.73;25140;1313;3067560;-67
2022/02/14 03:45:05;;;;;;;21.70;7.60;;;;;;;0.30;58.43;100680.65;25119;1313;3026265;-69
2022/02/14 03:47:34;;;;;;;17.00;7.60;;;;;;;0.23;58.57;100678.92;25138;1313;3051021;-71
2022/02/14 03:50:03;;;;;;;20.90;7.20;;;;;;;0.18;59.22;100675.98;25180;1313;3026707;-69
2022/02/14 03:52:33;;;;;;;16.90;6.70;;;;;;;0.18;59.08;100673.56;25274;1313;3055911;-69
2022/02/14 03:55:01;;;;;;;18.90;7.90;;;;;;;0.20;59.43;100672.02;25105;1313;3026347;-64
2022/02/14 03:57:31;;;;;;;17.80;7.40;;;;;;;0.21;59.39;100671.85;25139;1313;3051688;-65
2022/02/14 04:00:00;;;;;;;19.60;7.60;;;;;;;0.21;59.24;100672.36;25120;1312;3026949;-66
2022/02/14 04:02:29;;;;;;;15.60;6.70;;;;;;;0.18;59.43;100673.40;25115;1313;3056967;-64
2022/02/14 04:04:58;;;;;;;22.20;8.00;;;;;;;0.11;59.85;100673.90;25160;1313;3026557;-70
2022/02/14 04:07:27;;;;;;;20.90;8.00;;;;;;;0.12;59.99;100666.50;25222;1313;3051194;-65
2022/02/14 04:09:56;;;;;;;17.60;7.30;;;;;;;0.12;59.59;100668.56;25179;1313;3026491;-66
2022/02/14 04:12:25;;;;;;;21.00;7.40;;;;;;;0.16;59.57;100668.21;25213;1315;3051337;-67
2022/02/14 04:14:54;;;;;;;17.70;7.20;;;;;;;0.16;59.18;100665.98;25156;1313;3028290;-64
2022/02/14 04:17:24;;;;;;;13.60;6.80;;;;;;;0.14;59.56;100664.60;25259;1313;3048372;-62
2022/02/14 04:19:53;;;;;;;18.60;7.40;;;;;;;0.14;59.26;100663.92;25226;1313;3026254;-67
2022/02/14 04:22:22;;;;;;;15.40;6.60;;;;;;;0.17;59.12;100664.43;25167;1313;3026754;-68
2022/02/14 04:24:51;;;;;;;17.00;7.60;;;;;;;0.20;58.88;100668.05;25193;1313;3026903;-66
2022/02/14 04:27:20;;;;;;;19.30;8.00;;;;;;;0.24;58.83;100667.02;25079;1313;3052145;-62
2022/02/14 04:29:49;;;;;;;19.10;7.70;;;;;;;0.25;58.67;100667.89;25173;1313;3026862;-72
2022/02/14 04:32:18;;;;;;;24.70;8.60;;;;;;;0.26;59.04;100666.00;25100;1313;3047827;-68
2022/02/14 04:34:47;;;;;;;19.60;8.70;;;;;;;0.27;58.70;100668.92;25192;1313;3029651;-67
2022/02/14 04:37:16;;;;;;;18.80;8.70;;;;;;;0.25;58.91;100669.09;25113;1313;3070962;-69
2022/02/14 04:39:45;;;;;;;17.20;8.10;;;;;;;0.23;59.05;100668.23;25193;1313;3026563;-73
2022/02/14 04:42:14;;;;;;;17.30;8.10;;;;;;;0.19;58.79;100664.43;25138;1313;3051652;-69
2022/02/14 04:44:43;;;;;;;24.80;9.00;;;;;;;0.20;58.59;100670.47;25126;1313;3026268;-67
2022/02/14 04:47:11;;;;;;;15.80;7.90;;;;;;;0.19;58.21;100672.71;25207;1313;3052733;-65
2022/02/14 04:49:41;;;;;;;18.20;8.00;;;;;;;0.17;58.52;100675.97;25100;1313;3026944;-67
2022/02/14 04:52:09;;;;;;;19.00;8.10;;;;;;;0.18;58.08;100678.90;25179;1315;3048754;-63
2022/02/14 04:54:39;;;;;;;20.40;7.60;;;;;;;0.21;58.19;100678.06;25191;1313;3026570;-66
2022/02/14 04:57:08;;;;;;;17.40;7.70;;;;;;;0.26;58.36;100682.72;25229;1315;3026479;-69
2022/02/14 04:59:36;;;;;;;20.30;8.50;;;;;;;0.30;58.44;100684.95;25208;1313;3049515;-71
2022/02/14 05:02:06;;;;;;;18.30;8.50;;;;;;;0.35;58.17;100686.67;24856;1313;3027424;-67
2022/02/14 05:04:35;;;;;;;20.00;7.80;;;;;;;0.43;58.27;100687.04;25136;1313;3027844;-64
2022/02/14 05:07:04;;;;;;;23.20;9.30;;;;;;;0.54;58.21;100690.14;25065;1313;3048861;-65
2022/02/14 05:09:34;;;;;;;17.30;8.00;;;;;;;0.66;57.90;100687.39;25091;1313;3026370;-65
2022/02/14 05:12:03;;;;;;;21.20;8.20;;;;;;;0.69;57.33;100694.63;25197;1312;3027099;-64
2022/02/14 05:14:33;;;;;;;14.60;7.20;;;;;;;0.77;57.60;100698.91;25095;1313;3026167;-72
2022/02/14 05:17:02;;;;;;;18.80;8.00;;;;;;;0.89;57.51;100698.91;25163;1315;3051135;-70
2022/02/14 05:19:31;;;;;;;23.40;9.20;;;;;;;1.00;57.17;100699.41;25096;1313;3026267;-70
2022/02/14 05:22:00;;;;;;;25.90;9.20;;;;;;;0.98;57.46;100696.48;25143;1313;3049216;-68
2022/02/14 05:24:28;;;;;;;19.20;8.70;;;;;;;0.97;57.42;100695.96;25219;1313;3026053;-68
2022/02/14 05:26:57;;;;;;;23.70;9.70;;;;;;;1.00;57.26;100695.98;25144;1313;3054230;-68
2022/02/14 05:29:27;;;;;;;23.00;8.40;;;;;;;1.00;57.57;100701.65;25123;1313;3026990;-66
2022/02/14 05:31:57;;;;;;;21.10;8.80;;;;;;;1.04;57.21;100700.96;25235;1313;3050933;-66
2022/02/14 05:34:26;;;;;;;23.80;9.30;;;;;;;1.02;57.20;100698.55;25139;1313;3026457;-61
2022/02/14 05:36:55;;;;;;;24.90;9.00;;;;;;;1.08;57.21;100694.39;25149;1313;3026502;-67
2022/02/14 05:39:24;;;;;;;23.40;9.00;;;;;;;1.17;56.63;100697.31;25190;1313;3050571;-72
2022/02/14 05:41:53;;;;;;;19.80;8.40;;;;;;;1.25;56.78;100702.65;25200;1313;3026923;-69
2022/02/14 05:44:22;;;;;;;24.50;8.60;;;;;;;1.27;56.39;100694.70;25057;1313;3051295;-72
2022/02/14 05:46:51;;;;;;;26.60;9.70;;;;;;;1.15;56.35;100700.77;25104;1313;3026624;-68
2022/02/14 05:49:20;;;;;;;25.50;10.30;;;;;;;1.02;56.68;100706.83;25106;1313;3048633;-67
2022/02/14 05:51:48;;;;;;;26.30;10.80;;;;;;;1.07;56.70;100707.16;25101;1313;3027083;-70
2022/02/14 05:54:17;;;;;;;27.00;10.80;;;;;;;1.10;56.69;100707.34;25166;1313;3069237;-65
2022/02/14 05:56:46;;;;;;;30.80;11.90;;;;;;;1.19;56.75;100705.25;25161;1313;3027346;-64
2022/02/14 05:59:15;;;;;;;33.60;14.30;;;;;;;1.21;56.79;100707.32;25151;1313;3053435;-67
2022/02/14 06:01:44;;;;;;;36.80;16.30;;;;;;;1.16;56.79;100708.88;25142;1313;3027266;-70
2022/02/14 06:04:13;;;;;;;41.10;18.60;;;;;;;1.21;56.54;100708.52;25177;1313;3051756;-74
2022/02/14 06:06:44;;;;;;;49.30;19.70;;;;;;;1.22;56.79;100715.42;25096;1316;3027102;-68
2022/02/14 06:09:13;;;;;;;53.00;23.10;;;;;;;1.22;56.30;100713.36;25143;1313;3027031;-70
2022/02/14 06:11:42;;;;;;;47.10;20.20;;;;;;;1.24;56.55;100715.08;25078;1313;3052466;-70
2022/02/14 06:14:11;;;;;;;49.90;19.30;;;;;;;1.29;56.64;100720.58;25185;1313;3028447;-66
2022/02/14 06:16:41;;;;;;;53.50;19.70;;;;;;;1.32;56.71;100722.66;25171;1313;3049522;-66
2022/02/14 06:19:10;;;;;;;44.60;17.20;;;;;;;1.44;56.49;100722.96;25119;1313;3026735;-64
2022/02/14 06:21:39;;;;;;;42.20;18.40;;;;;;;1.59;56.14;100728.95;25205;1314;3056051;-68
2022/02/14 06:24:08;;;;;;;49.60;18.90;;;;;;;1.64;56.18;100729.80;25146;1313;3026669;-69
2022/02/14 06:26:39;;;;;;;48.00;19.10;;;;;;;1.66;56.05;100731.87;25253;1312;3053340;-68
2022/02/14 06:29:08;;;;;;;45.50;19.30;;;;;;;1.72;55.95;100731.48;25103;1313;3028258;-67
2022/02/14 06:31:37;;;;;;;60.10;21.10;;;;;;;1.85;56.26;100730.40;25159;1313;3055436;-65
2022/02/14 06:34:06;;;;;;;54.30;22.60;;;;;;;1.95;55.84;100730.70;25112;1313;3026220;-65
2022/02/14 06:36:35;;;;;;;57.80;23.20;;;;;;;1.98;55.89;100729.64;25107;1313;3048344;-66
2022/02/14 06:39:05;;;;;;;65.90;23.00;;;;;;;2.03;55.84;100727.55;25087;1313;3030235;-69
2022/02/14 06:41:40;;;;;;;59.50;24.30;;;;;;;2.15;55.65;100726.63;25103;1312;3069374;-65
2022/02/14 06:44:09;;;;;;;59.30;22.60;;;;;;;2.29;55.58;100728.79;25158;1313;3026819;-69
2022/02/14 06:46:44;;;;;;;58.20;23.00;;;;;;;2.41;55.77;100728.19;25146;1313;3051677;-66
2022/02/14 06:49:13;;;;;;;69.20;24.80;;;;;;;2.46;55.37;100733.16;25211;1313;3026769;-67
2022/02/14 06:51:42;;;;;;;64.00;24.10;;;;;;;2.49;55.46;100731.23;25114;1316;3048598;-63
2022/02/14 06:54:11;;;;;;;59.10;23.30;;;;;;;2.55;55.42;100731.55;25105;1313;3026540;-66
2022/02/14 06:56:41;;;;;;;67.30;24.80;;;;;;;2.61;55.61;100733.92;25177;1312;3070274;-72
2022/02/14 06:59:09;;;;;;;64.10;26.40;;;;;;;2.68;55.56;100730.93;25144;1315;3030190;-69
2022/02/14 07:01:40;;;;;;;55.00;24.00;;;;;;;2.71;55.76;100728.66;25084;1313;3053391;-64
2022/02/14 07:04:10;;;;;;;50.20;23.20;;;;;;;2.74;55.34;100727.77;25120;1312;3027266;-72
2022/02/14 07:06:39;;;;;;;55.80;23.70;;;;;;;2.78;55.41;100730.85;25170;1313;3026287;-70
2022/02/14 07:09:08;;;;;;;54.40;24.10;;;;;;;2.81;55.32;100727.02;25213;1315;3026598;-69
2022/02/14 07:11:43;;;;;;;59.80;22.10;;;;;;;2.84;55.34;100724.58;25134;1313;3070772;-67
2022/02/14 07:14:12;;;;;;;61.00;24.20;;;;;;;2.89;55.29;100723.31;25131;1313;3046704;-70
2022/02/14 07:16:43;;;;;;;68.40;25.20;;;;;;;2.94;55.17;100726.04;25255;1312;3029331;-67
2022/02/14 07:19:19;;;;;;;65.10;23.20;;;;;;;2.88;55.39;100720.37;25283;1313;3071652;-69
2022/02/14 07:21:48;;;;;;;57.50;22.00;;;;;;;2.94;54.29;100723.27;25172;1313;3026134;-71
2022/02/14 07:24:17;;;;;;;56.00;21.60;;;;;;;3.07;54.16;100727.83;25194;1313;3053179;-68
2022/02/14 07:26:46;;;;;;;52.70;20.20;;;;;;;3.17;53.42;100729.27;25157;1312;3026624;-71
2022/02/14 07:29:15;;;;;;;40.30;16.20;;;;;;;3.24;53.12;100724.55;25175;1313;3055007;-63
2022/02/14 07:31:44;;;;;;;46.10;18.30;;;;;;;3.30;52.94;100718.77;25232;1313;3027056;-64
2022/02/14 07:34:14;;;;;;;48.90;20.50;;;;;;;3.40;52.92;100720.21;25164;1313;3051466;-68
2022/02/14 07:36:43;;;;;;;43.50;17.80;;;;;;;3.39;52.67;100720.55;25166;1313;3026370;-67
2022/02/14 07:39:12;;;;;;;42.70;16.30;;;;;;;3.41;52.17;100720.55;25113;1313;3059239;-68
2022/02/14 07:41:41;;;;;;;30.20;12.90;;;;;;;3.42;51.39;100710.83;25201;1313;3026995;-71
2022/02/14 07:44:10;;;;;;;32.10;12.90;;;;;;;3.47;50.31;100714.41;25151;1313;3053662;-72
2022/02/14 07:46:39;;;;;;;30.40;12.00;;;;;;;3.40;50.49;100713.45;25253;1313;3027907;-70
2022/02/14 07:49:08;;;;;;;28.60;10.80;;;;;;;3.48;50.38;100716.64;25171;1313;3052524;-70
2022/02/14 07:51:38;;;;;;;28.00;11.50;;;;;;;3.62;49.77;100714.59;25174;1312;3027035;-67
2022/02/14 07:54:07;;;;;;;28.90;11.30;;;;;;;3.73;49.65;100720.52;25165;1313;3026924;-67
2022/02/14 07:56:37;;;;;;;30.00;10.80;;;;;;;3.76;49.37;100716.84;25193;1313;3051896;-69
2022/02/14 07:59:07;;;;;;;29.40;9.90;;;;;;;3.85;49.40;100712.56;25194;1312;3026307;-72
2022/02/14 08:01:38;;;;;;;29.60;10.70;;;;;;;3.90;49.06;100713.37;25144;1313;3048423;-69
2022/02/14 08:04:07;;;;;;;28.50;10.70;;;;;;;3.87;49.00;100710.98;25165;1312;3026565;-71
2022/02/14 08:06:37;;;;;;;24.00;9.50;;;;;;;3.99;49.10;100712.55;25128;1313;3026790;-71
2022/02/14 08:09:07;;;;;;;25.30;10.60;;;;;;;4.07;48.76;100716.44;25161;1313;3051194;-74
2022/02/14 08:11:37;;;;;;;28.10;11.70;;;;;;;3.97;48.26;100714.66;25224;1313;3026197;-65
2022/02/14 08:14:06;;;;;;;27.70;10.70;;;;;;;3.99;48.08;100716.71;25159;1313;3026121;-68
2022/02/14 08:16:35;;;;;;;26.60;9.90;;;;;;;3.91;47.85;100715.27;25284;1313;3048589;-69
2022/02/14 08:19:05;;;;;;;25.00;9.50;;;;;;;3.76;48.28;100714.25;25217;1313;3026501;-68
2022/02/14 08:21:36;;;;;;;25.60;8.80;;;;;;;3.87;47.95;100715.30;25141;1313;3026234;-67
2022/02/14 08:24:05;;;;;;;24.30;8.30;;;;;;;3.80;47.51;100712.98;25201;1313;3028870;-68
2022/02/14 08:26:34;;;;;;;19.20;7.80;;;;;;;3.71;47.52;100712.74;25202;1313;3026584;-68
2022/02/14 08:29:03;;;;;;;23.60;8.00;;;;;;;3.90;47.29;100707.14;25168;1313;3050977;-69
2022/02/14 08:31:35;;;;;;;19.80;7.50;;;;;;;3.91;47.34;100708.67;25145;1313;3026768;-68
2022/02/14 08:34:04;;;;;;;13.80;5.80;;;;;;;3.93;47.43;100707.43;25152;1313;3028301;-68
2022/02/14 08:36:33;;;;;;;17.00;5.90;;;;;;;3.88;46.30;100705.08;25164;1316;3050711;-69
2022/02/14 08:39:03;;;;;;;12.90;5.40;;;;;;;3.83;46.42;100705.31;25169;1313;3026741;-73
2022/02/14 08:41:33;;;;;;;18.70;5.60;;;;;;;3.97;46.23;100700.10;25257;1313;3027200;-68
2022/02/14 08:44:02;;;;;;;20.40;7.80;;;;;;;4.10;45.98;100693.34;25138;1313;3026585;-69
2022/02/14 08:46:42;;;;;;;30.60;10.20;;;;;;;4.07;46.45;100693.02;23493;1316;3055602;-71
2022/02/14 08:49:17;;;;;;;;;;;;;;;4.12;46.32;100695.05;9246;1316;3058232;-70
2022/02/14 08:51:47;;;;;;;14.90;5.60;;;;;;;4.02;45.91;100692.23;24012;1313;3049355;-70
2022/02/14 08:54:16;;;;;;;13.60;6.40;;;;;;;3.93;44.92;100692.88;25164;1313;3028268;-66
2022/02/14 08:56:45;;;;;;;17.30;6.00;;;;;;;4.04;45.41;100691.34;25063;1313;3049686;-71
2022/02/14 08:59:19;;;;;;;13.60;5.00;;;;;;;4.25;44.13;100691.38;25077;1313;3027600;-64
2022/02/14 09:01:48;;;;;;;11.40;5.50;;;;;;;4.37;43.77;100690.33;25146;1313;3053336;-72
2022/02/14 09:04:17;;;;;;;16.50;5.90;;;;;;;4.49;43.90;100685.11;25151;1313;3026965;-72
2022/02/14 09:06:46;;;;;;;11.50;5.40;;;;;;;4.53;43.63;100689.04;25161;1313;3026479;-65
2022/02/14 09:09:15;;;;;;;21.50;7.30;;;;;;;4.50;43.92;100686.14;25167;1313;3051238;-66
2022/02/14 09:11:45;;;;;;;16.40;6.20;;;;;;;4.66;44.48;100678.77;25124;1313;3026645;-68
2022/02/14 09:14:13;;;;;;;13.70;5.60;;;;;;;4.92;44.07;100674.33;25104;1313;3027137;-66
2022/02/14 09:16:43;;;;;;;16.40;5.40;;;;;;;5.04;43.24;100670.27;25192;1313;3053123;-64
2022/02/14 09:19:12;;;;;;;14.30;5.50;;;;;;;5.10;42.80;100659.75;25118;1313;3026806;-73
2022/02/14 09:21:42;;;;;;;14.20;6.10;;;;;;;5.17;43.36;100659.79;25213;1313;3052627;-68
2022/02/14 09:24:12;;;;;;;15.00;5.70;;;;;;;5.26;42.85;100660.66;25157;1311;3026355;-70
2022/02/14 09:26:43;;;;;;;13.60;5.30;;;;;;;5.39;42.54;100654.66;25122;1313;3026843;-70
2022/02/14 09:29:16;;;;;;;15.70;5.00;;;;;;;5.10;41.09;100653.48;25161;1313;3049279;-72
2022/02/14 09:31:45;;;;;;;14.60;5.00;;;;;;;5.22;41.70;100649.27;25211;1313;3026740;-69
2022/02/14 09:34:15;;;;;;;13.80;4.90;;;;;;;5.16;41.27;100642.08;25154;1313;3070511;-67
2022/02/14 09:36:44;;;;;;;16.20;6.40;;;;;;;5.16;41.37;100640.52;25124;1313;3027756;-66
2022/02/14 09:39:14;;;;;;;17.60;6.20;;;;;;;5.17;41.17;100641.38;25218;1313;3050687;-65
2022/02/14 09:41:43;;;;;;;18.30;6.30;;;;;;;5.17;41.64;100634.76;25163;1312;3026455;-65
2022/02/14 09:44:12;;;;;;;19.00;7.30;;;;;;;5.25;42.11;100630.28;25135;1313;3055345;-63
2022/02/14 09:46:43;;;;;;;14.20;6.90;;;;;;;5.48;41.90;100628.25;25184;1313;3028745;-65
2022/02/14 09:49:12;;;;;;;21.90;7.20;;;;;;;5.61;42.22;100630.92;25159;1313;3029790;-64
2022/02/14 09:51:41;;;;;;;16.30;6.60;;;;;;;5.61;42.07;100624.50;25088;1313;3052619;-63
2022/02/14 09:54:10;;;;;;;30.90;7.30;;;;;;;5.68;41.37;100621.05;25158;1313;3029056;-65
2022/02/14 09:56:40;;;;;;;20.00;7.60;;;;;;;5.82;41.48;100617.77;25188;1313;3049268;-66
2022/02/14 09:59:11;;;;;;;23.90;7.20;;;;;;;5.83;41.38;100616.52;25110;1313;3028797;-70
2022/02/14 10:01:40;;;;;;;15.40;6.80;;;;;;;5.85;41.13;100616.85;25210;1313;3026447;-69
2022/02/14 10:04:09;;;;;;;14.20;5.90;;;;;;;5.84;40.85;100613.55;25194;1313;3026963;-67
2022/02/14 10:06:39;;;;;;;16.80;6.50;;;;;;;5.98;41.05;100605.60;25078;1313;3054678;-68
2022/02/14 10:09:11;;;;;;;14.60;5.20;;;;;;;6.06;41.01;100608.37;25126;1313;3026933;-68
2022/02/14 10:12:06;;;;;;;21.60;5.60;;;;;;;6.11;40.18;100598.70;25139;1313;3025680;-69
2022/02/14 10:14:35;;;;;;;16.40;5.90;;;;;;;6.14;40.50;100599.16;25139;1312;3047748;-74
2022/02/14 10:17:09;;;;;;;16.10;5.60;;;;;;;5.94;40.24;100599.06;25141;1313;3026461;-71
2022/02/14 10:19:45;;;;;;;18.50;6.20;;;;;;;6.12;40.18;100593.64;25174;1313;3051537;-69
2022/02/14 10:22:14;;;;;;;21.30;5.80;;;;;;;6.05;39.94;100594.48;25164;1313;3054736;-69
2022/02/14 10:24:43;;;;;;;17.80;5.90;;;;;;;5.95;40.25;100590.88;25107;1313;3026867;-69
2022/02/14 10:27:13;;;;;;;14.80;5.90;;;;;;;6.27;40.21;100584.58;25129;1313;3053358;-67
2022/02/14 10:29:42;;;;;;;17.50;5.70;;;;;;;6.35;39.91;100576.87;25149;1313;3026379;-72
2022/02/14 10:32:20;;;;;;;13.60;5.10;;;;;;;6.38;39.27;100572.64;25225;1313;3027659;-69
2022/02/14 10:34:52;;;;;;;16.40;5.40;;;;;;;6.41;39.29;100574.64;25191;1313;3052188;-69
2022/02/14 10:37:21;;;;;;;13.40;5.50;;;;;;;6.42;39.50;100569.73;25273;1316;3026393;-72
2022/02/14 10:39:50;;;;;;;12.30;5.30;;;;;;;6.62;39.35;100564.34;25128;1313;3026905;-70
2022/02/14 10:42:20;;;;;;;13.70;5.10;;;;;;;6.69;39.20;100567.80;25189;1311;3051372;-70
2022/02/14 10:45:07;;;;;;;14.80;5.70;;;;;;;6.56;39.26;100559.45;25159;1313;3028771;-72
2022/02/14 10:47:46;;;;;;;13.20;5.10;;;;;;;6.50;39.54;100556.13;25080;1313;3053827;-67
2022/02/14 10:50:21;;;;;;;14.50;5.10;;;;;;;6.36;39.25;100553.54;25155;1313;3055952;-65
2022/02/14 10:52:55;;;;;;;12.90;4.90;;;;;;;6.40;39.21;100557.95;25076;1313;3051234;-68
2022/02/14 10:55:30;;;;;;;14.60;4.90;;;;;;;6.50;39.69;100545.51;25167;1313;3069012;-63
2022/02/14 10:58:00;;;;;;;19.00;5.60;;;;;;;6.72;39.08;100540.39;25138;1313;3050235;-69
2022/02/14 11:00:32;;;;;;;15.60;4.60;;;;;;;6.87;39.33;100540.50;25143;1313;3026394;-67
2022/02/14 11:03:06;;;;;;;14.70;4.80;;;;;;;6.96;38.54;100539.38;25116;1313;3025791;-63
2022/02/14 11:05:35;;;;;;;14.30;4.70;;;;;;;6.91;39.35;100537.24;25067;1313;3055923;-64
2022/02/14 11:08:08;;;;;;;19.00;5.60;;;;;;;7.03;38.12;100541.61;25126;1313;3028222;-67
2022/02/14 11:10:40;;;;;;;10.50;5.00;;;;;;;6.88;37.97;100538.40;25136;1313;3026481;-65
2022/02/14 11:13:10;;;;;;;22.40;5.00;;;;;;;7.13;37.62;100528.08;25078;1313;3027087;-63
2022/02/14 11:15:41;;;;;;;19.70;5.50;;;;;;;7.37;37.14;100525.80;25124;1313;3026524;-64
2022/02/14 11:18:12;;;;;;;23.00;6.00;;;;;;;7.36;37.73;100527.41;25149;1313;3026671;-66